Time;durP1;ratioP1;P1;durP2;ratioP2;P2;SDS_P1;SDS_P2;PMS_P1;PMS_P2;Temp;Humidity;BMP_temperature;BMP_pressure;BME280_temperature;BME280_humidity;BME280_pressure;Samples;Min_cycle;Max_cycle;Signal;HPM_P1;HPM_P2
2024/01/18 00:01:01;;;;;;;9.80;9.50;;;8.50;99.90;;;;;;6233756;23;20191;-82
2024/01/18 00:03:28;;;;;;;9.50;9.20;;;8.50;99.90;;;;;;6232673;23;20331;-81
2024/01/18 00:05:56;;;;;;;9.70;9.40;;;8.50;99.90;;;;;;6231798;23;20233;-82
2024/01/18 00:08:23;;;;;;;9.57;9.27;;;8.50;99.90;;;;;;6232151;22;20218;-83
2024/01/18 00:10:50;;;;;;;9.47;9.17;;;8.50;99.90;;;;;;6230610;23;20195;-82
2024/01/18 00:13:18;;;;;;;9.30;9.00;;;8.50;99.90;;;;;;6232312;23;20198;-83
2024/01/18 00:15:46;;;;;;;9.40;9.10;;;8.50;99.90;;;;;;6233711;23;20261;-83
2024/01/18 00:18:13;;;;;;;9.40;9.10;;;8.50;99.90;;;;;;6231538;22;20207;-83
2024/01/18 00:20:41;;;;;;;9.40;9.10;;;8.50;99.90;;;;;;6231228;23;20203;-82
2024/01/18 00:23:08;;;;;;;9.33;9.03;;;8.50;99.90;;;;;;6232102;23;20199;-82
2024/01/18 00:25:36;;;;;;;9.50;9.20;;;8.50;99.90;;;;;;6229977;23;20198;-83
2024/01/18 00:28:03;;;;;;;9.30;9.00;;;8.50;99.90;;;;;;6227789;22;20203;-83
2024/01/18 00:30:31;;;;;;;9.37;9.07;;;8.50;99.90;;;;;;6228225;23;20199;-82
2024/01/18 00:32:59;;;;;;;9.30;9.00;;;8.50;99.90;;;;;;6227887;23;20254;-82
2024/01/18 00:35:26;;;;;;;9.27;8.97;;;8.50;99.90;;;;;;6227554;23;20203;-83
2024/01/18 00:37:54;;;;;;;9.30;9.00;;;8.40;99.90;;;;;;6228884;22;20265;-82
2024/01/18 00:40:21;;;;;;;9.60;9.30;;;8.50;99.90;;;;;;6227524;23;20191;-83
2024/01/18 00:42:48;;;;;;;9.77;9.47;;;8.50;99.90;;;;;;6228145;23;20250;-83
2024/01/18 00:45:16;;;;;;;9.50;9.20;;;8.50;99.90;;;;;;6228426;23;20222;-82
2024/01/18 00:47:44;;;;;;;9.40;9.10;;;8.40;99.90;;;;;;6229111;22;20202;-83
2024/01/18 00:50:13;;;;;;;9.50;9.20;;;8.40;99.90;;;;;;6240474;23;20217;-82
2024/01/18 00:52:40;;;;;;;9.70;9.40;;;8.40;99.90;;;;;;6245899;23;20210;-82
2024/01/18 00:55:09;;;;;;;9.50;9.20;;;8.40;99.90;;;;;;6242701;23;20207;-83
2024/01/18 00:57:37;;;;;;;9.73;9.43;;;8.40;99.90;;;;;;6242907;22;20207;-82
2024/01/18 01:00:06;;;;;;;9.70;9.40;;;8.40;99.90;;;;;;6241618;23;20198;-82
2024/01/18 01:02:33;;;;;;;9.60;9.30;;;8.40;99.90;;;;;;6236591;23;20225;-83
2024/01/18 01:05:00;;;;;;;9.60;9.30;;;8.30;99.90;;;;;;6233427;23;20257;-83
2024/01/18 01:07:29;;;;;;;9.73;9.43;;;8.30;99.90;;;;;;6233208;22;20210;-83
2024/01/18 01:09:56;;;;;;;9.60;9.30;;;8.30;99.90;;;;;;6233641;23;20209;-82
2024/01/18 01:12:23;;;;;;;9.57;9.27;;;8.30;99.90;;;;;;6232332;23;20199;-82
2024/01/18 01:14:51;;;;;;;9.80;9.50;;;8.30;99.90;;;;;;6229971;23;20199;-83
2024/01/18 01:17:18;;;;;;;9.70;9.40;;;8.30;99.90;;;;;;6229232;22;20207;-83
2024/01/18 01:19:45;;;;;;;9.90;9.60;;;8.30;99.90;;;;;;6229039;23;20222;-83
2024/01/18 01:22:12;;;;;;;9.63;9.33;;;8.30;99.90;;;;;;6229680;23;20206;-83
2024/01/18 01:24:41;;;;;;;9.57;9.27;;;8.40;99.90;;;;;;6228605;23;20223;-82
2024/01/18 01:27:08;;;;;;;9.77;9.47;;;8.30;99.90;;;;;;6229204;22;20268;-83
2024/01/18 01:29:36;;;;;;;9.40;9.10;;;8.30;99.90;;;;;;6228405;23;20194;-83
2024/01/18 01:32:04;;;;;;;9.40;9.10;;;8.20;99.90;;;;;;6228955;23;20191;-83
2024/01/18 01:34:31;;;;;;;9.50;9.20;;;8.20;99.90;;;;;;6228377;23;20209;-83
2024/01/18 01:36:58;;;;;;;9.20;8.90;;;8.20;99.90;;;;;;6229799;22;20211;-83
2024/01/18 01:39:25;;;;;;;9.40;9.10;;;8.30;99.90;;;;;;6228376;23;20199;-83
2024/01/18 01:41:54;;;;;;;9.40;9.10;;;8.30;99.90;;;;;;6228978;23;20191;-83
2024/01/18 01:44:21;;;;;;;9.60;9.30;;;8.40;99.90;;;;;;6228570;23;20207;-82
2024/01/18 01:46:49;;;;;;;9.40;9.10;;;8.40;99.90;;;;;;6228060;22;20257;-82
2024/01/18 01:49:16;;;;;;;9.33;9.03;;;8.40;99.90;;;;;;6227939;23;20199;-83
2024/01/18 01:51:48;;;;;;;9.40;9.10;;;8.40;99.90;;;;;;6228824;23;20195;-83
2024/01/18 01:54:16;;;;;;;9.50;9.20;;;8.40;99.90;;;;;;6228216;23;20206;-83
2024/01/18 01:56:46;;;;;;;9.30;9.00;;;8.50;99.90;;;;;;6228452;22;20207;-83
2024/01/18 01:59:16;;;;;;;9.27;8.97;;;8.50;99.90;;;;;;6227702;23;20273;-83
2024/01/18 02:01:46;;;;;;;9.00;8.70;;;8.40;99.90;;;;;;6228925;23;20191;-83
2024/01/18 02:04:14;;;;;;;9.10;8.80;;;8.50;99.90;;;;;;6228609;23;20195;-83
2024/01/18 02:06:43;;;;;;;9.00;8.70;;;8.40;99.90;;;;;;6228469;22;20266;-82
2024/01/18 02:09:12;;;;;;;8.70;8.50;;;8.30;99.90;;;;;;6228385;23;20191;-83
2024/01/18 02:11:40;;;;;;;9.13;8.83;;;8.30;99.90;;;;;;6228756;23;20203;-82
2024/01/18 02:14:08;;;;;;;9.10;8.80;;;8.40;99.90;;;;;;6229474;23;20206;-82
2024/01/18 02:16:37;;;;;;;9.33;9.03;;;8.40;99.90;;;;;;6234645;22;20255;-81
2024/01/18 02:19:04;;;;;;;9.20;8.90;;;8.40;99.90;;;;;;6240671;23;20195;-83
2024/01/18 02:21:32;;;;;;;9.20;8.90;;;8.30;99.90;;;;;;6249941;22;20284;-82
2024/01/18 02:24:07;;;;;;;9.40;9.10;;;8.30;99.90;;;;;;6249229;23;20183;-83
2024/01/18 02:26:36;;;;;;;9.27;8.97;;;8.30;99.90;;;;;;6248183;22;20202;-82
2024/01/18 02:29:03;;;;;;;9.33;9.03;;;8.30;99.90;;;;;;6234468;23;20203;-83
2024/01/18 02:31:30;;;;;;;9.20;8.90;;;8.20;99.90;;;;;;6233146;23;20203;-83
2024/01/18 02:33:58;;;;;;;9.53;9.23;;;8.00;99.90;;;;;;6232905;23;20327;-83
2024/01/18 02:36:25;;;;;;;9.40;9.10;;;7.80;99.90;;;;;;6233769;22;20218;-83
2024/01/18 02:38:53;;;;;;;9.77;9.47;;;7.70;99.90;;;;;;6233111;23;20242;-83
2024/01/18 02:41:21;;;;;;;9.27;8.97;;;7.60;99.90;;;;;;6233154;23;20195;-82
2024/01/18 02:43:49;;;;;;;9.20;8.90;;;7.60;99.90;;;;;;6231666;23;20195;-82
2024/01/18 02:46:18;;;;;;;9.13;8.83;;;7.50;99.90;;;;;;6232032;22;20223;-82
2024/01/18 02:48:46;;;;;;;9.20;8.90;;;7.50;99.90;;;;;;6231750;23;20207;-83
2024/01/18 02:51:13;;;;;;;9.30;9.00;;;7.40;99.90;;;;;;6231652;23;20199;-82
2024/01/18 02:53:40;;;;;;;9.00;8.70;;;7.20;99.90;;;;;;6236265;23;20226;-83
2024/01/18 02:56:07;;;;;;;8.70;8.50;;;6.90;99.90;;;;;;6249744;22;20234;-83
2024/01/18 02:58:35;;;;;;;9.17;8.87;;;6.80;99.90;;;;;;6250313;22;20187;-83
2024/01/18 03:01:04;;;;;;;8.90;8.60;;;6.60;99.90;;;;;;6250158;22;20175;-82
2024/01/18 03:03:31;;;;;;;9.00;8.70;;;6.50;99.90;;;;;;6250307;22;20183;-82
2024/01/18 03:05:58;;;;;;;9.20;8.90;;;6.40;99.90;;;;;;6249956;22;20171;-82
2024/01/18 03:08:26;;;;;;;9.10;8.80;;;6.30;99.90;;;;;;6250267;22;20183;-82
2024/01/18 03:10:53;;;;;;;9.03;8.73;;;6.20;99.90;;;;;;6249543;22;20191;-83
2024/01/18 03:13:20;;;;;;;9.30;9.00;;;6.10;99.90;;;;;;6241824;23;20203;-82
2024/01/18 03:15:48;;;;;;;9.37;9.07;;;5.90;99.90;;;;;;6226951;23;20195;-83
2024/01/18 03:18:17;;;;;;;9.13;8.83;;;5.80;99.90;;;;;;6226569;22;20213;-82
2024/01/18 03:20:44;;;;;;;8.83;8.57;;;5.70;99.90;;;;;;6227203;23;20194;-82
2024/01/18 03:23:13;;;;;;;8.90;8.60;;;5.60;99.90;;;;;;6226819;23;20199;-82
2024/01/18 03:25:41;;;;;;;9.17;8.87;;;5.60;99.90;;;;;;6227298;23;20207;-82
2024/01/18 03:28:08;;;;;;;9.20;8.90;;;5.50;99.90;;;;;;6227401;22;20277;-82
2024/01/18 03:30:35;;;;;;;9.40;9.10;;;5.50;99.90;;;;;;6227222;23;20249;-82
2024/01/18 03:33:03;;;;;;;9.30;9.00;;;5.60;99.90;;;;;;6227173;23;20191;-82
2024/01/18 03:35:31;;;;;;;9.30;9.00;;;5.60;99.90;;;;;;6226498;23;20199;-82
2024/01/18 03:37:58;;;;;;;9.50;9.20;;;5.50;99.90;;;;;;6227202;22;20202;-83
2024/01/18 03:40:26;;;;;;;9.30;9.00;;;5.50;99.90;;;;;;6230497;23;20209;-83
2024/01/18 03:42:53;;;;;;;9.40;9.10;;;5.50;99.90;;;;;;6237702;23;20257;-83
2024/01/18 03:45:20;;;;;;;9.50;9.20;;;5.40;99.90;;;;;;6229404;23;20286;-83
2024/01/18 03:47:48;;;;;;;9.27;8.97;;;5.50;99.90;;;;;;6229110;22;20203;-83
2024/01/18 03:50:15;;;;;;;9.50;9.20;;;5.50;99.90;;;;;;6236744;23;20199;-82
2024/01/18 03:52:44;;;;;;;9.60;9.30;;;5.40;99.90;;;;;;6229824;23;20199;-82
2024/01/18 03:55:11;;;;;;;9.67;9.37;;;5.20;99.90;;;;;;6227258;23;20210;-82
2024/01/18 03:57:40;;;;;;;9.33;9.03;;;5.20;99.90;;;;;;6227806;22;20207;-83
2024/01/18 04:00:12;;;;;;;9.20;8.90;;;5.20;99.90;;;;;;6226742;23;20210;-82
2024/01/18 04:02:39;;;;;;;9.57;9.27;;;5.30;99.90;;;;;;6226858;23;20278;-82
2024/01/18 04:05:08;;;;;;;9.30;9.00;;;5.30;99.90;;;;;;6227583;23;20205;-83
2024/01/18 04:07:35;;;;;;;9.30;9.00;;;5.40;99.90;;;;;;6227107;22;20278;-82
2024/01/18 04:10:07;;;;;;;9.60;9.30;;;5.40;99.90;;;;;;6227631;23;20199;-83
2024/01/18 04:12:35;;;;;;;9.53;9.23;;;5.40;99.90;;;;;;6227219;23;20187;-83
2024/01/18 04:15:02;;;;;;;8.93;8.63;;;5.40;99.90;;;;;;6227073;23;20195;-82
2024/01/18 04:17:30;;;;;;;9.37;9.07;;;5.50;99.90;;;;;;6226771;22;20203;-83
2024/01/18 04:19:57;;;;;;;9.33;9.03;;;5.40;99.90;;;;;;6227017;23;20198;-83
2024/01/18 04:22:24;;;;;;;9.60;9.30;;;5.20;99.90;;;;;;6227741;23;20205;-82
2024/01/18 04:24:53;;;;;;;9.40;9.10;;;5.10;99.90;;;;;;6227737;23;20250;-83
2024/01/18 04:27:22;;;;;;;9.47;9.17;;;5.10;99.90;;;;;;6228208;22;20206;-82
2024/01/18 04:29:49;;;;;;;9.43;9.13;;;5.00;99.90;;;;;;6227645;23;20199;-82
2024/01/18 04:32:17;;;;;;;9.30;9.00;;;5.00;99.90;;;;;;6228089;23;20206;-83
2024/01/18 04:34:47;;;;;;;9.13;8.83;;;5.00;99.90;;;;;;6228399;23;20226;-82
2024/01/18 04:37:14;;;;;;;9.30;9.00;;;5.10;99.90;;;;;;6228586;22;20218;-83
2024/01/18 04:39:42;;;;;;;9.30;9.00;;;5.10;99.90;;;;;;6229503;23;20253;-83
2024/01/18 04:42:10;;;;;;;9.17;8.87;;;5.20;99.90;;;;;;6231344;23;20195;-82
2024/01/18 04:44:39;;;;;;;9.50;9.20;;;5.20;99.90;;;;;;6240031;23;20187;-83
2024/01/18 04:47:07;;;;;;;9.27;8.97;;;5.30;99.90;;;;;;6243285;22;20249;-82
2024/01/18 04:49:34;;;;;;;9.47;9.17;;;5.30;99.90;;;;;;6243944;22;20202;-83
2024/01/18 04:52:02;;;;;;;9.10;8.80;;;5.30;99.90;;;;;;6248113;22;20243;-82
2024/01/18 04:54:29;;;;;;;9.30;9.00;;;5.40;99.90;;;;;;6249102;22;20179;-83
2024/01/18 04:56:56;;;;;;;9.30;9.00;;;5.40;99.90;;;;;;6248860;22;20218;-82
2024/01/18 04:59:24;;;;;;;9.20;8.90;;;5.40;99.90;;;;;;6249000;22;20191;-83
2024/01/18 05:01:52;;;;;;;9.20;8.90;;;5.40;99.90;;;;;;6236503;22;20195;-83
2024/01/18 05:04:20;;;;;;;9.20;8.90;;;5.30;99.90;;;;;;6244133;22;20183;-81
2024/01/18 05:06:47;;;;;;;9.13;8.83;;;5.30;99.90;;;;;;6246145;22;20195;-82
2024/01/18 05:09:16;;;;;;;9.50;9.20;;;5.30;99.90;;;;;;6245412;22;20191;-82
2024/01/18 05:11:43;;;;;;;9.67;9.37;;;5.30;99.90;;;;;;6238776;23;20205;-81
2024/01/18 05:14:11;;;;;;;9.30;9.00;;;5.30;99.90;;;;;;6245231;23;20202;-81
2024/01/18 05:16:43;;;;;;;9.40;9.10;;;5.30;99.90;;;;;;6247218;22;20217;-84
2024/01/18 05:19:12;;;;;;;9.40;9.10;;;5.30;99.90;;;;;;6248724;22;20179;-82
2024/01/18 05:21:39;;;;;;;9.17;8.87;;;5.30;99.90;;;;;;6249283;22;20242;-80
2024/01/18 05:24:07;;;;;;;9.07;8.77;;;5.30;99.90;;;;;;6249262;22;20187;-82
2024/01/18 05:26:34;;;;;;;9.30;9.00;;;5.30;99.90;;;;;;6249169;22;20175;-81
2024/01/18 05:29:01;;;;;;;9.20;8.90;;;5.30;99.90;;;;;;6249403;22;20175;-82
2024/01/18 05:31:29;;;;;;;9.10;8.80;;;5.30;99.90;;;;;;6250629;22;20222;-82
2024/01/18 05:33:57;;;;;;;9.30;9.00;;;5.30;99.90;;;;;;6250754;22;20187;-82
2024/01/18 05:36:25;;;;;;;9.47;9.17;;;5.30;99.90;;;;;;6250578;22;20187;-83
2024/01/18 05:38:53;;;;;;;9.23;8.93;;;5.30;99.90;;;;;;6250878;22;20231;-82
2024/01/18 05:41:20;;;;;;;9.10;8.80;;;5.30;99.90;;;;;;6250456;22;20194;-82
2024/01/18 05:43:47;;;;;;;8.90;8.60;;;5.30;99.90;;;;;;6250333;22;20209;-82
2024/01/18 05:46:14;;;;;;;8.90;8.60;;;5.30;99.90;;;;;;6250011;22;20175;-82
2024/01/18 05:48:42;;;;;;;9.07;8.77;;;5.30;99.90;;;;;;6238751;22;20203;-82
2024/01/18 05:51:09;;;;;;;9.30;9.00;;;5.30;99.90;;;;;;6227096;23;20213;-82
2024/01/18 05:53:39;;;;;;;9.37;9.07;;;5.30;99.90;;;;;;6229019;23;20261;-82
2024/01/18 05:56:07;;;;;;;9.30;9.00;;;5.30;99.90;;;;;;6228746;22;20191;-82
2024/01/18 05:58:34;;;;;;;9.40;9.10;;;5.20;99.90;;;;;;6226618;22;20207;-86
2024/01/18 06:01:01;;;;;;;9.40;9.10;;;5.20;99.90;;;;;;6233895;23;20230;-85
2024/01/18 06:03:29;;;;;;;9.00;8.70;;;5.20;99.90;;;;;;6235449;23;20194;-84
2024/01/18 06:05:58;;;;;;;9.10;8.80;;;5.20;99.90;;;;;;6235442;23;20230;-85
2024/01/18 06:08:26;;;;;;;9.20;8.90;;;5.20;99.90;;;;;;6235685;22;20199;-86
2024/01/18 06:10:55;;;;;;;8.90;8.60;;;5.20;99.90;;;;;;6233180;23;20207;-85
2024/01/18 06:13:22;;;;;;;9.20;8.90;;;5.20;99.90;;;;;;6234578;23;20205;-85
2024/01/18 06:15:50;;;;;;;9.03;8.73;;;5.20;99.90;;;;;;6239790;23;20206;-84
2024/01/18 06:18:17;;;;;;;9.10;8.80;;;5.20;99.90;;;;;;6231737;22;20206;-85
2024/01/18 06:20:44;;;;;;;9.10;8.80;;;5.20;99.90;;;;;;6233360;23;20195;-85
2024/01/18 06:23:12;;;;;;;8.70;8.50;;;5.10;99.90;;;;;;6234209;23;20198;-85
2024/01/18 06:25:39;;;;;;;9.10;8.80;;;5.10;99.90;;;;;;6234955;23;20242;-85
2024/01/18 06:28:10;;;;;;;8.70;8.50;;;5.10;99.90;;;;;;6237115;22;20225;-85
2024/01/18 06:30:43;;;;;;;9.03;8.73;;;5.10;99.90;;;;;;6236123;23;20270;-86
2024/01/18 06:33:11;;;;;;;8.67;8.47;;;5.10;99.90;;;;;;6237890;23;20191;-85
2024/01/18 06:35:38;;;;;;;9.00;8.70;;;5.10;99.90;;;;;;6238367;23;20199;-84
2024/01/18 06:38:05;;;;;;;9.13;8.83;;;5.10;99.90;;;;;;6236650;22;20199;-84
2024/01/18 06:40:33;;;;;;;9.00;8.70;;;5.10;99.90;;;;;;6236635;23;20234;-84
2024/01/18 06:43:00;;;;;;;9.20;8.90;;;5.10;99.90;;;;;;6238134;23;20199;-84
2024/01/18 06:45:29;;;;;;;8.83;8.57;;;5.00;99.90;;;;;;6237412;23;20190;-85
2024/01/18 06:47:56;;;;;;;9.13;8.83;;;5.00;99.90;;;;;;6237517;22;20274;-83
2024/01/18 06:50:23;;;;;;;8.57;8.37;;;4.80;99.90;;;;;;6237180;23;20195;-85
2024/01/18 06:52:51;;;;;;;9.10;8.80;;;4.70;99.90;;;;;;6237990;23;20259;-84
2024/01/18 06:55:19;;;;;;;9.10;8.80;;;4.70;99.90;;;;;;6237937;23;20273;-85
2024/01/18 06:57:48;;;;;;;9.10;8.80;;;4.80;99.90;;;;;;6237438;22;20214;-84
2024/01/18 07:00:19;;;;;;;8.90;8.60;;;4.80;99.90;;;;;;6238417;23;20206;-85
2024/01/18 07:02:48;;;;;;;8.93;8.63;;;4.90;99.90;;;;;;6237073;23;20219;-85
2024/01/18 07:05:15;;;;;;;9.00;8.70;;;4.80;99.90;;;;;;6237555;23;20203;-84
2024/01/18 07:07:43;;;;;;;8.90;8.60;;;4.70;99.90;;;;;;6236658;22;20223;-84
2024/01/18 07:10:10;;;;;;;8.70;8.47;;;4.50;99.90;;;;;;6242651;23;20199;-84
2024/01/18 07:12:38;;;;;;;9.60;9.30;;;4.40;99.90;;;;;;6242286;23;20203;-84
2024/01/18 07:15:07;;;;;;;9.60;9.30;;;4.30;99.90;;;;;;6239435;23;20972;-85
2024/01/18 07:17:35;;;;;;;9.47;9.17;;;4.20;99.90;;;;;;6238686;22;20210;-84
2024/01/18 07:20:04;;;;;;;9.47;9.17;;;4.10;99.90;;;;;;6237604;23;20215;-84
2024/01/18 07:22:32;;;;;;;9.50;9.20;;;4.00;99.90;;;;;;6245382;23;20199;-83
2024/01/18 07:24:59;;;;;;;9.80;9.50;;;4.00;99.90;;;;;;6246103;23;20217;-84
2024/01/18 07:27:26;;;;;;;9.87;9.57;;;4.00;99.90;;;;;;6245616;22;20199;-83
2024/01/18 07:29:53;;;;;;;9.70;9.40;;;4.00;99.90;;;;;;6242457;23;20199;-84
2024/01/18 07:32:21;;;;;;;9.63;9.33;;;4.00;99.90;;;;;;6239312;23;20191;-84
2024/01/18 07:34:48;;;;;;;9.90;9.60;;;3.90;99.90;;;;;;6239362;23;20203;-85
2024/01/18 07:37:16;;;;;;;9.30;9.00;;;3.80;99.90;;;;;;6237960;22;20261;-84
2024/01/18 07:39:44;;;;;;;9.40;9.10;;;3.70;99.90;;;;;;6236739;23;20194;-85
2024/01/18 07:42:11;;;;;;;9.40;9.10;;;3.60;99.90;;;;;;6237047;23;20191;-85
2024/01/18 07:44:42;;;;;;;9.60;9.30;;;3.50;99.90;;;;;;6236607;23;20194;-84
2024/01/18 07:47:10;;;;;;;9.50;9.20;;;3.40;99.90;;;;;;6236582;22;20199;-84
2024/01/18 07:49:41;;;;;;;9.60;9.30;;;3.30;99.90;;;;;;6230534;23;20260;-84
2024/01/18 07:52:08;;;;;;;9.33;9.03;;;3.30;99.90;;;;;;6231113;23;20243;-85
2024/01/18 07:54:37;;;;;;;9.57;9.27;;;3.20;99.90;;;;;;6230836;23;20278;-83
2024/01/18 07:57:05;;;;;;;9.10;8.80;;;3.10;99.90;;;;;;6231452;22;20231;-84
2024/01/18 07:59:33;;;;;;;9.30;9.00;;;3.10;99.90;;;;;;6242564;22;20187;-82
2024/01/18 08:02:01;;;;;;;9.27;8.97;;;3.10;99.90;;;;;;6245534;22;20206;-84
2024/01/18 08:04:29;;;;;;;9.17;8.87;;;3.10;99.90;;;;;;6238561;23;20207;-85
2024/01/18 08:06:56;;;;;;;8.90;8.60;;;3.10;99.90;;;;;;6237698;22;20207;-85
2024/01/18 08:09:23;;;;;;;9.00;8.70;;;3.10;99.90;;;;;;6238079;23;20217;-85
2024/01/18 08:11:52;;;;;;;9.00;8.70;;;3.00;99.90;;;;;;6236510;23;20286;-85
2024/01/18 08:14:20;;;;;;;8.90;8.60;;;3.00;99.90;;;;;;6236143;23;20206;-84
2024/01/18 08:16:47;;;;;;;8.87;8.57;;;3.00;99.90;;;;;;6236444;22;20207;-84
2024/01/18 08:19:14;;;;;;;9.10;8.80;;;3.10;99.90;;;;;;6237896;23;20218;-85
2024/01/18 08:21:44;;;;;;;9.30;9.00;;;3.00;99.90;;;;;;6234132;23;20195;-84
2024/01/18 08:24:12;;;;;;;9.17;8.87;;;2.90;99.90;;;;;;6231334;23;20199;-85
2024/01/18 08:26:40;;;;;;;9.30;9.00;;;2.90;99.90;;;;;;6232597;22;20254;-84
2024/01/18 08:29:09;;;;;;;9.53;9.23;;;2.80;99.90;;;;;;6232563;23;20191;-85
2024/01/18 08:31:36;;;;;;;9.50;9.20;;;2.80;99.90;;;;;;6233491;23;20187;-85
2024/01/18 08:34:04;;;;;;;9.87;9.57;;;2.80;99.90;;;;;;6234402;23;20258;-84
2024/01/18 08:36:31;;;;;;;9.77;9.47;;;2.90;99.90;;;;;;6234626;23;20249;-84
2024/01/18 08:38:59;;;;;;;9.70;9.40;;;2.90;99.90;;;;;;6234971;22;20199;-85
2024/01/18 08:41:26;;;;;;;9.70;9.40;;;2.80;99.90;;;;;;6235345;23;20218;-84
2024/01/18 08:43:53;;;;;;;9.37;9.07;;;2.80;99.90;;;;;;6235050;23;20222;-84
2024/01/18 08:46:22;;;;;;;9.40;9.10;;;2.70;99.90;;;;;;6235458;23;20198;-85
2024/01/18 08:48:49;;;;;;;9.60;9.30;;;2.70;99.90;;;;;;6234811;22;20203;-83
2024/01/18 08:51:16;;;;;;;9.57;9.27;;;2.70;99.90;;;;;;6235596;23;20261;-85
2024/01/18 08:53:46;;;;;;;9.57;9.27;;;2.70;99.90;;;;;;6235937;23;20194;-83
2024/01/18 08:56:13;;;;;;;9.60;9.30;;;2.70;99.90;;;;;;6235104;23;20217;-83
2024/01/18 08:58:41;;;;;;;9.57;9.27;;;2.70;99.90;;;;;;6235388;22;20301;-85
2024/01/18 09:01:08;;;;;;;9.70;9.40;;;2.80;99.90;;;;;;6235062;23;20197;-85
2024/01/18 09:03:37;;;;;;;10.00;9.70;;;2.70;99.90;;;;;;6235395;23;20218;-85
2024/01/18 09:06:05;;;;;;;10.10;9.80;;;2.70;99.90;;;;;;6237441;23;20218;-85
2024/01/18 09:08:34;;;;;;;9.93;9.63;;;2.60;99.90;;;;;;6236941;22;20230;-85
2024/01/18 09:11:01;;;;;;;9.60;9.30;;;2.50;99.90;;;;;;6237297;23;20206;-85
2024/01/18 09:13:29;;;;;;;9.70;9.40;;;2.60;99.90;;;;;;6237009;23;20195;-85
2024/01/18 09:15:56;;;;;;;9.20;8.90;;;2.60;99.90;;;;;;6236555;23;20210;-85
2024/01/18 09:18:23;;;;;;;8.80;8.60;;;2.60;99.90;;;;;;6235713;22;20215;-85
2024/01/18 09:20:52;;;;;;;9.60;9.30;;;2.60;99.90;;;;;;6234923;23;20207;-85
2024/01/18 09:23:22;;;;;;;9.40;9.10;;;2.70;99.90;;;;;;6236600;23;20202;-85
2024/01/18 09:25:49;;;;;;;9.27;8.97;;;2.60;99.90;;;;;;6236335;23;20199;-85
2024/01/18 09:28:16;;;;;;;9.20;8.90;;;2.80;99.90;;;;;;6235874;22;20213;-85
2024/01/18 09:30:45;;;;;;;9.30;9.00;;;2.70;99.90;;;;;;6248709;22;20205;-82
2024/01/18 09:33:12;;;;;;;9.20;8.90;;;2.60;99.90;;;;;;6243990;22;20205;-84
2024/01/18 09:35:40;;;;;;;9.30;9.00;;;2.60;99.90;;;;;;6229123;23;20206;-84
2024/01/18 09:38:10;;;;;;;8.97;8.67;;;2.50;99.90;;;;;;6229997;22;20203;-84
2024/01/18 09:40:39;;;;;;;8.93;8.70;;;2.50;99.90;;;;;;6230580;23;20198;-85
2024/01/18 09:43:10;;;;;;;9.30;9.00;;;2.50;99.90;;;;;;6231743;23;20191;-84
2024/01/18 09:45:40;;;;;;;9.20;8.90;;;2.50;99.90;;;;;;6231786;23;20644;-85
2024/01/18 09:48:08;;;;;;;9.20;8.90;;;2.60;99.90;;;;;;6231841;22;20270;-84
2024/01/18 09:50:44;;;;;;;9.33;9.03;;;2.60;99.90;;;;;;6232508;23;20206;-85
2024/01/18 09:53:14;;;;;;;9.30;9.00;;;2.60;99.90;;;;;;6233553;23;20221;-84
2024/01/18 09:55:41;;;;;;;8.80;8.60;;;2.50;99.90;;;;;;6233369;23;20199;-85
2024/01/18 09:58:13;;;;;;;9.20;8.90;;;2.50;99.90;;;;;;6233991;22;20206;-85
2024/01/18 10:00:45;;;;;;;8.97;8.70;;;2.50;99.90;;;;;;6233993;23;20187;-84
2024/01/18 10:03:12;;;;;;;9.10;8.80;;;2.50;99.90;;;;;;6235981;23;20191;-83
2024/01/18 10:05:42;;;;;;;8.73;8.53;;;2.50;99.90;;;;;;6236153;23;20191;-85
2024/01/18 10:08:10;;;;;;;9.03;8.73;;;2.50;99.90;;;;;;6235685;22;20239;-85
2024/01/18 10:10:39;;;;;;;9.00;8.70;;;2.40;99.90;;;;;;6236811;23;20195;-84
2024/01/18 10:13:06;;;;;;;9.47;9.17;;;2.30;99.90;;;;;;6249911;22;20179;-83
2024/01/18 10:15:35;;;;;;;9.30;9.00;;;2.30;99.90;;;;;;6242964;22;20230;-85
2024/01/18 10:18:04;;;;;;;9.03;8.73;;;2.20;99.90;;;;;;6239327;22;20213;-84
2024/01/18 10:20:32;;;;;;;9.30;9.00;;;2.30;99.90;;;;;;6238630;23;20183;-85
2024/01/18 10:23:00;;;;;;;9.47;9.17;;;2.30;99.90;;;;;;6237620;23;20191;-85
2024/01/18 10:25:28;;;;;;;9.00;8.70;;;2.30;99.90;;;;;;6241337;22;20195;-85
2024/01/18 10:27:58;;;;;;;9.07;8.77;;;2.20;99.90;;;;;;6229893;22;20199;-84
2024/01/18 10:30:25;;;;;;;9.00;8.70;;;2.20;99.90;;;;;;6230584;23;20258;-83
2024/01/18 10:32:52;;;;;;;9.03;8.73;;;2.30;99.90;;;;;;6233700;23;20662;-85
2024/01/18 10:35:24;;;;;;;8.73;8.53;;;2.30;99.90;;;;;;6235180;23;20262;-85
2024/01/18 10:38:02;;;;;;;8.70;8.50;;;2.20;99.90;;;;;;6235669;22;20214;-84
2024/01/18 10:40:31;;;;;;;8.80;8.60;;;2.20;99.90;;;;;;6235541;23;20195;-85
2024/01/18 10:43:00;;;;;;;8.50;8.30;;;2.20;99.90;;;;;;6235815;23;20206;-86
2024/01/18 10:45:30;;;;;;;9.13;8.83;;;2.10;99.90;;;;;;6236828;23;20281;-83
2024/01/18 10:47:58;;;;;;;9.00;8.70;;;2.00;99.90;;;;;;6235812;23;20203;-84
2024/01/18 10:50:26;;;;;;;9.00;8.70;;;1.90;99.90;;;;;;6238700;23;20199;-85
2024/01/18 10:52:53;;;;;;;8.53;8.33;;;1.90;99.90;;;;;;6247789;22;20195;-84
2024/01/18 10:55:21;;;;;;;8.80;8.60;;;1.90;99.90;;;;;;6231608;23;20213;-84
2024/01/18 10:57:48;;;;;;;8.53;8.33;;;1.90;99.90;;;;;;6231411;22;20211;-85
2024/01/18 11:00:19;;;;;;;9.07;8.77;;;1.80;99.90;;;;;;6232277;23;20226;-85
2024/01/18 11:02:47;;;;;;;8.33;8.13;;;1.80;99.90;;;;;;6231828;23;20226;-84
2024/01/18 11:05:17;;;;;;;8.47;8.27;;;1.70;99.90;;;;;;6230927;23;20209;-84
2024/01/18 11:07:48;;;;;;;8.67;8.47;;;1.70;99.90;;;;;;6233060;22;20195;-85
2024/01/18 11:10:15;;;;;;;8.80;8.60;;;1.60;99.90;;;;;;6232473;23;20201;-86
2024/01/18 11:12:46;;;;;;;8.77;8.57;;;1.70;99.90;;;;;;6233619;23;20202;-86
2024/01/18 11:15:14;;;;;;;9.17;8.87;;;1.70;99.90;;;;;;6234118;23;20242;-85
2024/01/18 11:17:47;;;;;;;9.10;8.80;;;1.70;99.90;;;;;;6234463;22;20217;-84
2024/01/18 11:20:16;;;;;;;8.90;8.60;;;1.60;99.90;;;;;;6234369;23;20199;-86
2024/01/18 11:22:43;;;;;;;8.40;8.20;;;1.50;99.90;;;;;;6235148;23;20203;-86
2024/01/18 11:25:13;;;;;;;8.47;8.27;;;1.50;99.90;;;;;;6235027;23;20199;-85
2024/01/18 11:27:42;;;;;;;8.20;8.00;;;1.50;99.90;;;;;;6235695;22;20207;-85
2024/01/18 11:30:13;;;;;;;8.47;8.27;;;1.40;99.90;;;;;;6234441;23;20203;-84
2024/01/18 11:32:41;;;;;;;8.60;8.40;;;1.40;99.90;;;;;;6234671;23;20191;-86
2024/01/18 11:35:12;;;;;;;8.37;8.17;;;1.30;99.90;;;;;;6234568;23;20191;-84
2024/01/18 11:37:40;;;;;;;8.57;8.37;;;1.20;99.90;;;;;;6235435;22;20241;-85
2024/01/18 11:40:10;;;;;;;8.30;8.10;;;1.10;99.90;;;;;;6236401;23;20195;-85
2024/01/18 11:42:40;;;;;;;8.60;8.40;;;1.10;99.90;;;;;;6235070;23;20254;-85
2024/01/18 11:45:17;;;;;;;8.80;8.57;;;1.00;99.90;;;;;;6235281;23;20218;-84
2024/01/18 11:47:45;;;;;;;9.17;8.87;;;1.00;99.90;;;;;;6235408;22;20234;-85
2024/01/18 11:50:16;;;;;;;8.43;8.23;;;0.90;99.90;;;;;;6234743;23;20198;-84
2024/01/18 11:52:44;;;;;;;8.80;8.57;;;0.90;99.90;;;;;;6233677;23;20194;-85
2024/01/18 11:55:16;;;;;;;8.87;8.60;;;0.80;99.90;;;;;;6229590;23;20195;-84
2024/01/18 11:57:43;;;;;;;8.50;8.30;;;0.80;99.90;;;;;;6225465;22;20231;-82
2024/01/18 12:00:12;;;;;;;8.67;8.47;;;0.80;99.90;;;;;;6226408;23;20207;-82
2024/01/18 12:02:39;;;;;;;9.00;8.70;;;0.80;99.90;;;;;;6226967;23;20210;-82
2024/01/18 12:05:08;;;;;;;8.87;8.57;;;0.80;99.90;;;;;;6227288;23;20190;-82
2024/01/18 12:07:38;;;;;;;9.37;9.07;;;0.80;99.90;;;;;;6228117;22;20191;-82
2024/01/18 12:10:08;;;;;;;9.20;8.90;;;0.70;99.90;;;;;;6230787;23;20188;-82
2024/01/18 12:12:39;;;;;;;9.17;8.87;;;0.70;99.90;;;;;;6230671;23;20201;-83
2024/01/18 12:15:08;;;;;;;9.50;9.20;;;0.60;99.90;;;;;;6229452;23;20183;-81
2024/01/18 12:17:35;;;;;;;9.00;8.70;;;0.60;99.90;;;;;;6229936;22;20242;-81
2024/01/18 12:20:03;;;;;;;8.80;8.57;;;0.60;99.90;;;;;;6231842;23;20255;-81
2024/01/18 12:22:31;;;;;;;9.30;9.00;;;0.60;99.90;;;;;;6229293;23;20196;-80
2024/01/18 12:24:59;;;;;;;9.17;8.87;;;0.70;99.90;;;;;;6227165;23;20195;-80
2024/01/18 12:27:27;;;;;;;9.63;9.33;;;0.60;99.90;;;;;;6226926;22;20191;-81
2024/01/18 12:29:54;;;;;;;9.60;9.30;;;0.60;99.90;;;;;;6227027;23;20199;-81
2024/01/18 12:32:22;;;;;;;9.50;9.20;;;0.60;99.90;;;;;;6227120;23;20741;-81
2024/01/18 12:34:49;;;;;;;9.37;9.07;;;0.60;99.90;;;;;;6227147;23;20198;-81
2024/01/18 12:37:19;;;;;;;9.80;9.50;;;0.50;99.90;;;;;;6226943;23;20249;-81
2024/01/18 12:39:46;;;;;;;9.50;9.20;;;0.50;99.90;;;;;;6228036;23;20210;-81
2024/01/18 12:42:14;;;;;;;9.87;9.57;;;0.60;99.90;;;;;;6229119;23;20210;-81
2024/01/18 12:44:42;;;;;;;9.70;9.40;;;0.60;99.90;;;;;;6228993;23;20267;-81
2024/01/18 12:47:09;;;;;;;9.17;8.87;;;0.60;99.90;;;;;;6229130;23;20195;-81
2024/01/18 12:49:36;;;;;;;9.37;9.07;;;0.50;99.90;;;;;;6228076;22;20194;-80
2024/01/18 12:52:04;;;;;;;9.20;8.90;;;0.50;99.90;;;;;;6228926;23;20202;-81
2024/01/18 12:54:32;;;;;;;9.57;9.27;;;0.50;99.90;;;;;;6228440;23;20230;-81
2024/01/18 12:57:00;;;;;;;9.10;8.80;;;0.50;99.90;;;;;;6228038;23;20253;-81
2024/01/18 12:59:31;;;;;;;9.33;9.03;;;0.50;99.90;;;;;;6228145;22;20232;-81
2024/01/18 13:01:59;;;;;;;8.97;8.67;;;0.50;99.90;;;;;;6228120;23;20224;-81